createdAt,value
2019-01-24T00:01:29.259Z,19.30
2019-01-24T00:03:57.440Z,19.36
2019-01-24T00:06:25.634Z,19.48
2019-01-24T00:08:53.775Z,19.40
2019-01-24T00:11:22.021Z,19.38
2019-01-24T00:13:50.200Z,19.46
2019-01-24T00:16:18.369Z,19.45
2019-01-24T00:18:46.648Z,19.54
2019-01-24T00:21:14.990Z,19.62
2019-01-24T00:23:43.199Z,19.53
2019-01-24T00:26:11.402Z,19.52
2019-01-24T00:28:39.605Z,19.58
2019-01-24T00:31:07.790Z,19.55
2019-01-24T00:33:35.949Z,19.55
2019-01-24T00:36:04.123Z,19.59
2019-01-24T00:38:32.297Z,19.69
2019-01-24T00:41:00.528Z,19.71
2019-01-24T00:43:28.703Z,19.75
2019-01-24T00:45:56.922Z,19.75
2019-01-24T00:48:25.129Z,19.73
2019-01-24T00:50:53.303Z,19.77
2019-01-24T00:53:21.468Z,19.80
2019-01-24T00:55:49.656Z,19.68
2019-01-24T00:58:36.738Z,19.76
2019-01-24T01:01:24.176Z,19.77
2019-01-24T01:03:52.389Z,19.78
2019-01-24T01:06:20.559Z,19.78
2019-01-24T01:08:48.726Z,19.80
2019-01-24T01:11:16.996Z,19.82
2019-01-24T01:13:45.213Z,19.94
2019-01-24T01:16:13.414Z,20.02
2019-01-24T01:19:00.508Z,20.06
2019-01-24T01:21:28.766Z,20.07
2019-01-24T01:23:57.001Z,20.10
2019-01-24T01:26:25.201Z,20.10
2019-01-24T01:28:53.376Z,20.12
2019-01-24T01:31:21.550Z,20.19
2019-01-24T01:33:49.908Z,20.20
2019-01-24T01:36:18.098Z,20.25
2019-01-24T01:38:46.302Z,20.26
2019-01-24T01:41:14.604Z,20.32
2019-01-24T01:43:42.759Z,20.40
2019-01-24T01:46:10.958Z,20.41
2019-01-24T01:48:39.128Z,20.44
2019-01-24T01:51:26.400Z,20.47
2019-01-24T01:53:54.589Z,20.57
2019-01-24T01:56:22.799Z,20.63
2019-01-24T01:58:51.029Z,20.66
2019-01-24T02:01:19.219Z,20.66
2019-01-24T02:03:47.453Z,20.75
2019-01-24T02:06:15.639Z,20.25
2019-01-24T02:08:43.852Z,20.88
2019-01-24T02:11:12.051Z,20.87
2019-01-24T02:13:40.257Z,20.82
2019-01-24T02:16:08.440Z,20.95
2019-01-24T02:18:36.649Z,20.96
2019-01-24T02:21:04.877Z,21.03
2019-01-24T02:23:52.121Z,20.96
2019-01-24T02:26:20.291Z,21.05
2019-01-24T02:28:48.515Z,21.06
2019-01-24T02:31:16.778Z,21.10
2019-01-24T02:33:44.978Z,21.20
2019-01-24T02:36:13.220Z,21.19
2019-01-24T02:38:41.424Z,21.18
2019-01-24T02:41:09.622Z,21.27
2019-01-24T02:43:37.842Z,21.32
2019-01-24T02:46:06.023Z,21.36
2019-01-24T02:48:34.241Z,21.31
2019-01-24T02:51:02.412Z,21.34
2019-01-24T02:53:30.663Z,21.41
2019-01-24T02:55:58.849Z,21.43
2019-01-24T02:58:27.077Z,21.46
2019-01-24T03:00:55.250Z,21.45
2019-01-24T03:03:23.446Z,21.61
2019-01-24T03:05:51.709Z,21.64
2019-01-24T03:08:19.961Z,21.69
2019-01-24T03:10:48.129Z,21.22
2019-01-24T03:13:16.339Z,21.68
2019-01-24T03:15:44.559Z,21.78
2019-01-24T03:18:12.741Z,21.78
2019-01-24T03:20:40.962Z,21.89
2019-01-24T03:23:28.068Z,21.88
2019-01-24T03:25:56.276Z,21.87
2019-01-24T03:28:24.517Z,22.03
2019-01-24T03:30:52.715Z,21.92
2019-01-24T03:33:20.916Z,22.12
2019-01-24T03:35:49.160Z,21.98
2019-01-24T03:38:17.319Z,22.01
2019-01-24T03:40:45.512Z,22.00
2019-01-24T03:43:13.706Z,22.07
2019-01-24T03:45:41.910Z,22.12
2019-01-24T03:48:29.121Z,22.07
2019-01-24T03:50:57.308Z,22.14
2019-01-24T03:53:25.488Z,22.18
2019-01-24T03:55:53.666Z,22.21
2019-01-24T03:58:21.816Z,22.23
2019-01-24T04:00:50.061Z,22.23
2019-01-24T04:03:18.272Z,22.29
2019-01-24T04:05:46.457Z,22.28
2019-01-24T04:08:14.647Z,22.38
2019-01-24T04:10:42.831Z,22.44
2019-01-24T04:13:11.053Z,22.35
2019-01-24T04:15:39.244Z,22.41
2019-01-24T04:18:07.450Z,22.52
2019-01-24T04:20:35.665Z,22.41
2019-01-24T04:23:03.882Z,22.44
2019-01-24T04:25:32.048Z,22.52
2019-01-24T04:28:00.204Z,22.63
2019-01-24T04:30:28.452Z,22.51
2019-01-24T04:32:56.694Z,22.61
2019-01-24T04:35:24.884Z,22.68
2019-01-24T04:37:53.076Z,22.62
2019-01-24T04:40:40.338Z,22.65
2019-01-24T04:43:08.527Z,22.65
2019-01-24T04:45:36.822Z,22.69
2019-01-24T04:48:05.050Z,22.70
2019-01-24T04:50:33.203Z,22.69
2019-01-24T04:53:01.398Z,22.79
2019-01-24T04:55:29.601Z,22.87
2019-01-24T04:57:57.830Z,22.87
2019-01-24T05:00:27.266Z,22.20
2019-01-24T05:02:55.443Z,22.86
2019-01-24T05:05:27.885Z,22.81
2019-01-24T05:07:53.543Z,23.00
2019-01-24T05:10:21.751Z,22.94
2019-01-24T05:12:49.930Z,23.00
2019-01-24T05:17:51.665Z,22.99
2019-01-24T05:20:19.947Z,23.33
2019-01-24T05:22:48.125Z,23.27
2019-01-24T05:25:16.860Z,23.12
2019-01-24T05:30:22.603Z,23.23
2019-01-24T05:32:50.797Z,23.09
2019-01-24T05:37:52.918Z,23.09
2019-01-24T05:40:21.196Z,23.24
2019-01-24T05:42:49.371Z,23.21
2019-01-24T05:45:17.574Z,23.26
2019-01-24T05:47:45.768Z,23.21
2019-01-24T05:50:13.953Z,23.35
2019-01-24T05:53:01.049Z,23.36
2019-01-24T05:55:29.210Z,23.33
2019-01-24T05:57:57.391Z,23.32
2019-01-24T06:03:16.606Z,23.21
2019-01-24T06:05:44.763Z,23.47
2019-01-24T06:08:32.005Z,23.39
2019-01-24T06:11:00.167Z,23.37
2019-01-24T06:13:28.368Z,23.41
2019-01-24T06:15:56.585Z,23.30
2019-01-24T06:18:24.813Z,23.41
2019-01-24T06:20:53.000Z,23.47
2019-01-24T06:23:21.177Z,23.54
2019-01-24T06:28:22.567Z,23.44
2019-01-24T06:31:09.825Z,23.63
2019-01-24T06:33:38.079Z,23.61
2019-01-24T06:36:06.252Z,23.53
2019-01-24T06:38:34.446Z,23.61
2019-01-24T06:41:02.688Z,23.68
2019-01-24T06:43:30.885Z,23.70
2019-01-24T06:46:17.993Z,23.77
2019-01-24T06:48:46.162Z,23.68
2019-01-24T06:51:14.370Z,23.66
2019-01-24T06:54:01.688Z,23.70
2019-01-24T06:56:29.887Z,23.78
2019-01-24T06:58:58.131Z,23.74
2019-01-24T07:01:26.288Z,23.75
2019-01-24T07:03:54.494Z,23.78
2019-01-24T07:06:22.770Z,23.81
2019-01-24T07:11:24.744Z,23.87
2019-01-24T07:13:52.932Z,23.91
2019-01-24T07:16:21.634Z,23.97
2019-01-24T07:18:50.389Z,23.97
2019-01-24T07:21:19.109Z,23.95
2019-01-24T07:23:47.793Z,24.04
2019-01-24T07:26:16.260Z,23.99
2019-01-24T07:28:44.966Z,24.04
2019-01-24T07:31:13.150Z,24.07
2019-01-24T07:33:41.436Z,24.08
2019-01-24T07:36:09.639Z,24.01
2019-01-24T07:38:37.857Z,24.06
2019-01-24T07:41:06.055Z,24.05
2019-01-24T07:43:34.286Z,24.12
2019-01-24T07:46:02.502Z,24.23
2019-01-24T07:48:30.712Z,24.19
2019-01-24T07:50:58.937Z,24.19
2019-01-24T07:53:27.153Z,24.26
2019-01-24T07:55:55.348Z,24.19
2019-01-24T07:58:23.540Z,24.26
2019-01-24T08:00:51.754Z,24.24
2019-01-24T08:03:20.206Z,24.24
2019-01-24T08:08:37.249Z,24.18
2019-01-24T08:11:05.440Z,24.21
2019-01-24T08:13:33.889Z,24.27
2019-01-24T08:16:02.275Z,24.26
2019-01-24T08:18:49.398Z,24.27
2019-01-24T08:21:17.675Z,24.20
2019-01-24T08:24:04.859Z,24.30
2019-01-24T08:29:20.322Z,24.34
2019-01-24T08:31:48.472Z,24.13
2019-01-24T08:34:16.783Z,24.23
2019-01-24T08:36:45.235Z,24.24
2019-01-24T08:39:13.459Z,24.28
2019-01-24T08:41:41.621Z,24.26
2019-01-24T08:44:09.774Z,24.29
2019-01-24T08:46:37.952Z,24.20
2019-01-24T08:49:06.163Z,24.25
2019-01-24T08:51:53.414Z,24.25
2019-01-24T08:54:21.557Z,24.14
2019-01-24T08:56:49.694Z,24.18
2019-01-24T08:59:17.855Z,24.13
2019-01-24T09:01:46.000Z,23.63
2019-01-24T09:07:01.295Z,24.24
2019-01-24T09:09:29.707Z,24.19
2019-01-24T09:12:16.928Z,24.25
2019-01-24T09:17:32.204Z,24.26
2019-01-24T09:20:00.336Z,24.28
2019-01-24T09:22:28.504Z,24.28
2019-01-24T09:24:56.652Z,24.38
2019-01-24T09:27:24.780Z,24.31
2019-01-24T09:29:52.973Z,24.28
2019-01-24T09:32:21.124Z,24.33
2019-01-24T09:34:49.279Z,24.29
2019-01-24T09:37:17.416Z,24.32
2019-01-24T09:39:45.561Z,24.33
2019-01-24T09:42:14.697Z,24.39
2019-01-24T09:44:43.498Z,24.32
2019-01-24T09:47:11.661Z,24.44
2019-01-24T09:49:39.809Z,24.40
2019-01-24T09:52:07.964Z,24.43
2019-01-24T09:54:36.105Z,24.50
2019-01-24T09:57:04.236Z,24.53
2019-01-24T10:02:05.856Z,24.63
2019-01-24T10:04:34.065Z,24.65
2019-01-24T10:07:02.232Z,24.65
2019-01-24T10:09:49.306Z,24.62
2019-01-24T10:12:17.449Z,24.62
2019-01-24T10:14:45.587Z,24.68
2019-01-24T10:17:13.737Z,24.76
2019-01-24T10:19:41.904Z,24.75
2019-01-24T10:22:10.069Z,24.78
2019-01-24T10:24:38.220Z,24.91
2019-01-24T10:27:06.384Z,24.81
2019-01-24T10:29:34.541Z,24.79
2019-01-24T10:32:02.720Z,24.84
2019-01-24T10:34:30.948Z,24.74
2019-01-24T10:36:59.122Z,24.72
2019-01-24T10:39:27.248Z,24.84
2019-01-24T10:44:29.044Z,24.79
2019-01-24T10:46:57.221Z,24.84
2019-01-24T10:49:25.356Z,24.83
2019-01-24T10:52:12.402Z,24.77
2019-01-24T10:54:40.569Z,24.94
2019-01-24T10:57:08.714Z,24.91
2019-01-24T10:59:36.863Z,24.96
2019-01-24T11:02:04.998Z,24.91
2019-01-24T11:04:33.190Z,25.03
2019-01-24T11:07:01.344Z,25.08
2019-01-24T11:12:16.644Z,25.00
2019-01-24T11:14:44.832Z,25.14
2019-01-24T11:17:12.928Z,25.19
2019-01-24T11:20:00.198Z,25.10
2019-01-24T11:22:28.300Z,25.12
2019-01-24T11:24:56.509Z,25.14
2019-01-24T11:27:43.568Z,25.16
2019-01-24T11:30:13.060Z,25.10
2019-01-24T11:32:41.439Z,25.24
2019-01-24T11:35:10.921Z,25.18
2019-01-24T11:37:39.194Z,25.12
2019-01-24T11:40:08.177Z,25.18
2019-01-24T11:42:36.326Z,25.09
2019-01-24T11:45:04.455Z,25.12
2019-01-24T11:47:32.597Z,25.12
2019-01-24T11:50:00.737Z,25.09
2019-01-24T11:52:28.928Z,25.04
2019-01-24T11:54:57.071Z,25.00
2019-01-24T11:57:25.226Z,24.98
2019-01-24T11:59:53.364Z,24.99
2019-01-24T12:02:21.567Z,25.01
2019-01-24T12:04:49.798Z,25.12
2019-01-24T12:07:18.076Z,25.07
2019-01-24T12:09:46.308Z,25.04
2019-01-24T12:12:14.602Z,25.08
2019-01-24T12:14:43.022Z,25.12
2019-01-24T12:19:58.340Z,25.05
2019-01-24T12:25:01.656Z,25.18
2019-01-24T12:27:29.882Z,25.17
2019-01-24T12:29:59.712Z,25.14
2019-01-24T12:32:27.940Z,25.12
2019-01-24T12:34:56.145Z,25.27
2019-01-24T12:37:24.327Z,25.19
2019-01-24T12:39:52.557Z,25.20
2019-01-24T12:42:20.792Z,25.11
2019-01-24T12:45:07.987Z,25.24
2019-01-24T12:47:36.280Z,25.38
2019-01-24T12:50:04.654Z,25.39
2019-01-24T12:52:32.971Z,25.45
2019-01-24T12:55:01.628Z,25.54
2019-01-24T12:57:29.844Z,25.60
2019-01-24T12:59:59.781Z,25.35
2019-01-24T13:02:28.281Z,25.47
2019-01-24T13:04:56.582Z,25.47
2019-01-24T13:07:24.829Z,25.48
2019-01-24T13:09:53.013Z,25.48
2019-01-24T13:12:21.347Z,25.56
2019-01-24T13:14:49.630Z,25.51
2019-01-24T13:17:17.794Z,25.56
2019-01-24T13:19:45.936Z,25.48
2019-01-24T13:24:48.010Z,25.57
2019-01-24T13:27:16.329Z,25.54
2019-01-24T13:29:44.586Z,25.56
2019-01-24T13:32:12.856Z,25.57
2019-01-24T13:34:41.289Z,25.58
2019-01-24T13:37:09.583Z,25.50
2019-01-24T13:39:38.138Z,25.49
2019-01-24T13:42:06.376Z,25.54
2019-01-24T13:44:34.561Z,25.57
2019-01-24T13:47:21.910Z,25.45
2019-01-24T13:49:50.059Z,25.63
2019-01-24T13:52:18.212Z,25.50
2019-01-24T13:54:46.382Z,25.68
2019-01-24T13:57:33.713Z,25.61
2019-01-24T14:00:01.888Z,25.70
2019-01-24T14:02:30.091Z,25.73
2019-01-24T14:04:58.302Z,25.81
2019-01-24T14:07:32.825Z,25.77
2019-01-24T14:09:56.355Z,25.80
2019-01-24T14:12:24.589Z,25.78
2019-01-24T14:14:52.791Z,25.71
2019-01-24T14:17:20.965Z,25.91
2019-01-24T14:19:49.147Z,25.78
2019-01-24T14:22:17.328Z,25.79
2019-01-24T14:24:45.478Z,25.81
2019-01-24T14:27:13.636Z,25.75
2019-01-24T14:29:41.829Z,25.85
2019-01-24T14:32:10.019Z,25.75
2019-01-24T14:34:39.539Z,25.78
2019-01-24T14:39:43.184Z,25.75
2019-01-24T14:42:11.347Z,25.74
2019-01-24T14:44:39.529Z,25.84
2019-01-24T14:47:08.294Z,25.85
2019-01-24T14:49:36.593Z,25.78
2019-01-24T14:52:04.683Z,25.89
2019-01-24T14:54:32.853Z,25.86
2019-01-24T14:57:00.991Z,25.85
2019-01-24T14:59:29.136Z,25.84
2019-01-24T15:01:57.267Z,25.81
2019-01-24T15:04:25.417Z,25.89
2019-01-24T15:06:53.585Z,25.82
2019-01-24T15:09:21.742Z,25.86
2019-01-24T15:12:08.808Z,25.81
2019-01-24T15:14:36.960Z,25.84
2019-01-24T15:17:05.128Z,25.83
2019-01-24T15:19:33.268Z,25.76
2019-01-24T15:22:01.430Z,25.81
2019-01-24T15:24:29.567Z,25.82
2019-01-24T15:26:57.738Z,25.90
2019-01-24T15:29:25.900Z,25.86
2019-01-24T15:31:54.036Z,25.78
2019-01-24T15:34:22.196Z,25.82
2019-01-24T15:36:50.337Z,25.84
2019-01-24T15:39:18.475Z,25.83
2019-01-24T15:41:46.645Z,25.82
2019-01-24T15:44:14.790Z,25.82
2019-01-24T15:46:42.925Z,25.81
2019-01-24T15:49:11.079Z,25.88
2019-01-24T15:51:39.216Z,25.83
2019-01-24T15:54:07.397Z,25.81
2019-01-24T15:56:35.534Z,25.78
2019-01-24T15:59:03.709Z,25.82
2019-01-24T16:01:31.848Z,25.86
2019-01-24T16:04:19.934Z,25.81
2019-01-24T16:06:48.729Z,25.61
2019-01-24T16:09:16.873Z,25.83
2019-01-24T16:11:45.012Z,25.80
2019-01-24T16:14:13.139Z,25.83
2019-01-24T16:16:41.306Z,25.81
2019-01-24T16:19:09.522Z,25.81
2019-01-24T16:21:37.646Z,25.71
2019-01-24T16:24:24.883Z,25.77
2019-01-24T16:26:53.028Z,25.72
2019-01-24T16:29:21.176Z,25.59
2019-01-24T16:31:49.318Z,25.78
2019-01-24T16:34:36.544Z,25.80
2019-01-24T16:37:04.684Z,25.65
2019-01-24T16:39:32.845Z,25.69
2019-01-24T16:44:53.850Z,25.62
2019-01-24T16:47:21.998Z,25.68
2019-01-24T16:49:50.145Z,25.62
2019-01-24T16:52:18.280Z,25.64
2019-01-24T16:55:05.363Z,25.52
2019-01-24T16:57:33.504Z,25.62
2019-01-24T17:00:01.677Z,25.60
2019-01-24T17:02:29.799Z,25.54
2019-01-24T17:04:57.940Z,25.53
2019-01-24T17:07:26.089Z,25.56
2019-01-24T17:09:54.228Z,25.46
2019-01-24T17:12:22.395Z,25.57
2019-01-24T17:14:50.531Z,25.48
2019-01-24T17:17:18.676Z,25.50
2019-01-24T17:19:46.828Z,25.53
2019-01-24T17:27:36.102Z,25.49
2019-01-24T17:33:02.781Z,25.54
2019-01-24T17:35:30.939Z,25.57
2019-01-24T17:37:59.120Z,25.45
2019-01-24T17:40:28.100Z,25.45
2019-01-24T17:42:56.240Z,25.46
2019-01-24T17:45:24.413Z,25.45
2019-01-24T17:47:52.599Z,25.45
2019-01-24T17:50:20.746Z,25.39
2019-01-24T17:55:37.226Z,25.36
2019-01-24T17:58:06.401Z,25.38
2019-01-24T18:03:10.953Z,25.33
2019-01-24T18:05:39.089Z,25.35
2019-01-24T18:08:07.276Z,25.33
2019-01-24T18:10:35.405Z,25.27
2019-01-24T18:13:03.550Z,25.26
2019-01-24T18:15:31.748Z,25.25
2019-01-24T18:17:59.840Z,25.23
2019-01-24T18:20:29.196Z,25.29
2019-01-24T18:22:57.334Z,25.26
2019-01-24T18:28:13.059Z,25.30
2019-01-24T18:30:41.226Z,25.19
2019-01-24T18:33:09.352Z,25.27
2019-01-24T18:35:37.522Z,25.18
2019-01-24T18:38:05.972Z,25.19
2019-01-24T18:40:34.110Z,25.22
2019-01-24T18:43:02.240Z,25.16
2019-01-24T18:45:49.469Z,25.18
2019-01-24T18:48:36.521Z,25.18
2019-01-24T18:51:04.689Z,25.11
2019-01-24T18:53:32.835Z,25.19
2019-01-24T18:56:00.959Z,25.14
2019-01-24T18:58:29.114Z,25.14
2019-01-24T19:00:57.268Z,25.11
2019-01-24T19:03:25.405Z,25.07
2019-01-24T19:05:53.542Z,25.08
2019-01-24T19:08:21.714Z,25.02
2019-01-24T19:10:49.836Z,25.04
2019-01-24T19:13:18.008Z,25.06
2019-01-24T19:15:47.059Z,25.06
2019-01-24T19:18:15.200Z,25.05
2019-01-24T19:23:17.420Z,25.03
2019-01-24T19:25:45.585Z,25.06
2019-01-24T19:31:25.350Z,25.04
2019-01-24T19:33:53.500Z,25.03
2019-01-24T19:36:21.642Z,24.99
2019-01-24T19:38:53.285Z,25.03
2019-01-24T19:41:19.716Z,24.99
2019-01-24T19:43:47.856Z,24.97
2019-01-24T19:46:16.011Z,24.96
2019-01-24T19:48:44.185Z,24.90
2019-01-24T19:51:12.326Z,24.98
2019-01-24T19:53:40.524Z,24.89
2019-01-24T19:56:08.729Z,24.90
2019-01-24T20:03:58.154Z,24.88
2019-01-24T20:06:26.345Z,24.87
2019-01-24T20:09:00.092Z,24.89
2019-01-24T20:11:24.366Z,24.83
2019-01-24T20:21:39.071Z,24.81
2019-01-24T20:24:07.340Z,24.82
2019-01-24T20:26:35.520Z,24.78
2019-01-24T20:29:03.732Z,24.82
2019-01-24T20:31:31.895Z,24.85
2019-01-24T20:34:00.076Z,24.79
2019-01-24T20:36:28.274Z,24.90
2019-01-24T20:38:56.452Z,24.77
2019-01-24T20:41:24.681Z,24.75
2019-01-24T20:43:52.909Z,24.83
2019-01-24T20:46:21.059Z,24.75
2019-01-24T20:48:49.284Z,24.75
2019-01-24T20:51:17.504Z,24.74
2019-01-24T20:53:45.658Z,24.74
2019-01-24T20:56:32.929Z,24.67
2019-01-24T20:59:01.081Z,24.68
2019-01-24T21:04:03.181Z,24.72
2019-01-24T21:06:31.390Z,24.70
2019-01-24T21:08:59.593Z,24.60
2019-01-24T21:11:27.805Z,24.70
2019-01-24T21:13:56.010Z,24.69
2019-01-24T21:16:24.132Z,24.77
2019-01-24T21:18:52.333Z,24.76
2019-01-24T21:21:20.497Z,24.69
2019-01-24T21:24:07.744Z,24.64
2019-01-24T21:26:36.034Z,24.60
2019-01-24T21:29:04.241Z,24.53
2019-01-24T21:31:32.553Z,24.53
2019-01-24T21:34:00.726Z,24.63
2019-01-24T21:36:28.953Z,24.60
2019-01-24T21:38:57.102Z,24.60
2019-01-24T21:41:25.261Z,24.61
2019-01-24T21:43:53.513Z,24.52
2019-01-24T21:46:21.652Z,24.56
2019-01-24T21:48:49.813Z,24.63
2019-01-24T21:51:17.983Z,24.56
2019-01-24T21:53:46.251Z,24.61
2019-01-24T21:56:14.531Z,24.55
2019-01-24T21:58:42.795Z,24.46
2019-01-24T22:01:10.959Z,24.56
2019-01-24T22:03:39.170Z,24.48
2019-01-24T22:06:07.445Z,24.50
2019-01-24T22:08:35.675Z,24.54
2019-01-24T22:11:03.866Z,24.53
2019-01-24T22:13:32.047Z,24.50
2019-01-24T22:16:00.325Z,24.42
2019-01-24T22:18:28.464Z,24.46
2019-01-24T22:20:56.644Z,24.41
2019-01-24T22:23:24.799Z,24.49
2019-01-24T22:25:52.952Z,24.49
2019-01-24T22:28:21.094Z,24.48
2019-01-24T22:30:51.862Z,24.43
2019-01-24T22:33:20.033Z,24.33
2019-01-24T22:35:48.241Z,24.31
2019-01-24T22:38:16.421Z,24.32
2019-01-24T22:40:44.602Z,24.38
2019-01-24T22:43:12.853Z,24.32
2019-01-24T22:45:41.018Z,24.39
2019-01-24T22:48:09.206Z,24.34
2019-01-24T22:50:37.453Z,24.38
2019-01-24T22:53:05.873Z,24.36
2019-01-24T22:55:34.093Z,24.34
2019-01-24T22:58:02.250Z,24.35
2019-01-24T23:00:49.077Z,24.26
2019-01-24T23:03:18.737Z,24.23
2019-01-24T23:05:46.940Z,24.37
2019-01-24T23:08:15.122Z,24.27
2019-01-24T23:10:43.307Z,24.29
2019-01-24T23:13:11.589Z,24.35
2019-01-24T23:15:39.752Z,24.17
2019-01-24T23:18:07.907Z,24.32
2019-01-24T23:20:36.099Z,24.20
2019-01-24T23:23:04.354Z,24.18
2019-01-24T23:25:32.516Z,24.13
2019-01-24T23:28:00.650Z,24.21
2019-01-24T23:30:28.941Z,24.16
2019-01-24T23:32:57.085Z,24.15
2019-01-24T23:35:25.287Z,24.14
2019-01-24T23:37:53.450Z,24.13
2019-01-24T23:40:21.647Z,24.22
2019-01-24T23:42:49.820Z,24.24
2019-01-24T23:45:18.018Z,24.21
2019-01-24T23:47:46.191Z,24.18
2019-01-24T23:50:14.441Z,24.16
2019-01-24T23:52:42.623Z,24.13
2019-01-24T23:55:10.888Z,24.13
2019-01-24T23:57:39.194Z,24.14
